createdAt,value
2018-01-25T00:00:53.039Z,60.80
2018-01-25T00:01:54.156Z,60.90
2018-01-25T00:02:55.330Z,60.60
2018-01-25T00:03:57.163Z,60.40
2018-01-25T00:04:58.235Z,60.40
2018-01-25T00:05:59.341Z,60.60
2018-01-25T00:07:01.199Z,60.80
2018-01-25T00:08:02.310Z,60.80
2018-01-25T00:09:03.440Z,60.90
2018-01-25T00:10:04.562Z,61.00
2018-01-25T00:11:05.656Z,61.00
2018-01-25T00:12:06.731Z,61.00
2018-01-25T00:13:07.824Z,61.00
2018-01-25T00:14:08.927Z,61.20
2018-01-25T00:15:10.750Z,61.60
2018-01-25T00:16:12.615Z,61.00
2018-01-25T00:17:13.720Z,61.00
2018-01-25T00:18:14.789Z,61.00
2018-01-25T00:19:15.890Z,61.10
2018-01-25T00:20:17.016Z,61.00
2018-01-25T00:21:18.119Z,61.00
2018-01-25T00:22:19.303Z,61.20
2018-01-25T00:23:20.417Z,61.20
2018-01-25T00:24:21.499Z,61.30
2018-01-25T00:25:23.333Z,61.20
2018-01-25T00:26:24.421Z,61.20
2018-01-25T00:27:25.487Z,61.40
2018-01-25T00:28:26.606Z,61.70
2018-01-25T00:29:27.667Z,61.50
2018-01-25T00:30:29.484Z,61.30
2018-01-25T00:31:30.581Z,61.40
2018-01-25T00:32:31.680Z,61.70
2018-01-25T00:33:32.904Z,61.70
2018-01-25T00:34:33.974Z,61.60
2018-01-25T00:35:35.048Z,61.90
2018-01-25T00:36:36.203Z,61.90
2018-01-25T00:37:37.328Z,61.80
2018-01-25T00:38:38.434Z,62.00
2018-01-25T00:39:39.520Z,61.90
2018-01-25T00:40:40.612Z,62.00
2018-01-25T00:41:41.724Z,61.90
2018-01-25T00:42:42.800Z,61.80
2018-01-25T00:43:43.924Z,61.80
2018-01-25T00:44:45.204Z,61.90
2018-01-25T00:45:46.283Z,61.80
2018-01-25T00:46:47.367Z,61.80
2018-01-25T00:47:49.199Z,61.90
2018-01-25T00:48:50.287Z,61.90
2018-01-25T00:49:51.526Z,61.80
2018-01-25T00:50:52.594Z,61.80
2018-01-25T00:51:54.407Z,62.00
2018-01-25T00:52:55.503Z,62.00
2018-01-25T00:53:56.586Z,62.10
2018-01-25T00:54:57.645Z,62.10
2018-01-25T00:55:59.485Z,62.10
2018-01-25T00:57:00.624Z,62.10
2018-01-25T00:58:02.442Z,62.10
2018-01-25T00:59:03.527Z,62.10
2018-01-25T01:00:04.602Z,62.10
2018-01-25T01:01:05.675Z,62.20
2018-01-25T01:02:06.760Z,62.10
2018-01-25T01:03:08.133Z,62.20
2018-01-25T01:04:09.354Z,62.30
2018-01-25T01:05:10.659Z,62.20
2018-01-25T01:06:11.894Z,62.20
2018-01-25T01:07:13.731Z,62.60
2018-01-25T01:08:14.792Z,62.60
2018-01-25T01:09:15.864Z,62.50
2018-01-25T01:10:16.997Z,62.50
2018-01-25T01:11:18.042Z,62.70
2018-01-25T01:12:19.131Z,63.00
2018-01-25T01:13:20.196Z,63.00
2018-01-25T01:14:21.294Z,62.90
2018-01-25T01:15:22.362Z,63.00
2018-01-25T01:16:23.522Z,63.00
2018-01-25T01:17:24.596Z,62.90
2018-01-25T01:18:25.671Z,63.00
2018-01-25T01:19:27.500Z,62.70
2018-01-25T01:20:28.590Z,62.80
2018-01-25T01:21:29.670Z,62.70
2018-01-25T01:22:30.742Z,62.20
2018-01-25T01:23:31.850Z,62.40
2018-01-25T01:24:32.999Z,62.50
2018-01-25T01:25:34.221Z,62.70
2018-01-25T01:26:35.337Z,62.60
2018-01-25T01:27:36.456Z,62.50
2018-01-25T01:28:37.544Z,62.30
2018-01-25T01:29:38.636Z,61.80
2018-01-25T01:30:39.726Z,61.70
2018-01-25T01:31:40.852Z,62.40
2018-01-25T01:32:42.662Z,61.00
2018-01-25T01:33:44.468Z,60.90
2018-01-25T01:34:45.542Z,60.90
2018-01-25T01:35:47.394Z,60.80
2018-01-25T01:36:48.471Z,60.70
2018-01-25T01:37:49.533Z,60.50
2018-01-25T01:38:50.599Z,60.50
2018-01-25T01:39:51.687Z,60.40
2018-01-25T01:40:52.759Z,60.10
2018-01-25T01:41:53.829Z,59.90
2018-01-25T01:42:54.883Z,59.60
2018-01-25T01:43:55.946Z,59.40
2018-01-25T01:44:57.778Z,59.20
2018-01-25T01:45:58.868Z,59.20
2018-01-25T01:46:59.942Z,59.80
2018-01-25T01:48:01.034Z,59.00
2018-01-25T01:49:02.132Z,58.90
2018-01-25T01:50:03.223Z,58.80
2018-01-25T01:51:04.298Z,58.80
2018-01-25T01:52:06.122Z,58.90
2018-01-25T01:53:07.190Z,58.70
2018-01-25T01:54:09.000Z,58.80
2018-01-25T01:55:10.071Z,58.70
2018-01-25T01:56:11.156Z,58.70
2018-01-25T01:57:12.247Z,58.60
2018-01-25T01:58:14.072Z,58.50
2018-01-25T01:59:15.159Z,58.50
2018-01-25T02:00:16.279Z,58.40
2018-01-25T02:01:17.318Z,58.40
2018-01-25T02:02:18.395Z,58.50
2018-01-25T02:03:20.207Z,58.40
2018-01-25T02:04:21.271Z,58.40
2018-01-25T02:05:22.331Z,58.40
2018-01-25T02:06:23.411Z,58.40
2018-01-25T02:07:24.463Z,58.40
2018-01-25T02:08:25.510Z,58.70
2018-01-25T02:09:27.311Z,58.70
2018-01-25T02:10:28.383Z,58.70
2018-01-25T02:11:30.183Z,59.20
2018-01-25T02:12:31.252Z,59.20
2018-01-25T02:13:32.347Z,59.00
2018-01-25T02:14:33.427Z,59.20
2018-01-25T02:15:34.486Z,59.30
2018-01-25T02:16:35.606Z,59.20
2018-01-25T02:17:36.655Z,59.30
2018-01-25T02:18:37.719Z,59.40
2018-01-25T02:19:38.783Z,59.20
2018-01-25T02:20:40.618Z,59.30
2018-01-25T02:21:41.693Z,59.20
2018-01-25T02:22:42.766Z,59.30
2018-01-25T02:23:43.859Z,59.40
2018-01-25T02:24:44.919Z,59.40
2018-01-25T02:25:46.010Z,59.10
2018-01-25T02:26:47.091Z,59.30
2018-01-25T02:28:55.901Z,59.40
2018-01-25T02:29:56.967Z,59.40
2018-01-25T02:30:58.827Z,59.30
2018-01-25T02:31:59.898Z,59.30
2018-01-25T02:33:00.989Z,59.30
2018-01-25T02:34:02.035Z,59.40
2018-01-25T02:35:03.852Z,59.60
2018-01-25T02:36:04.916Z,59.70
2018-01-25T02:37:06.761Z,59.80
2018-01-25T02:38:07.819Z,59.80
2018-01-25T02:39:08.903Z,59.90
2018-01-25T02:40:09.983Z,59.90
2018-01-25T02:41:11.824Z,60.10
2018-01-25T02:42:12.911Z,60.10
2018-01-25T02:43:13.987Z,60.20
2018-01-25T02:44:15.053Z,60.30
2018-01-25T02:45:16.136Z,60.50
2018-01-25T02:46:17.215Z,60.60
2018-01-25T02:47:18.307Z,60.80
2018-01-25T02:48:20.151Z,61.00
2018-01-25T02:49:21.231Z,61.00
2018-01-25T02:50:22.314Z,61.20
2018-01-25T02:51:24.131Z,61.40
2018-01-25T02:52:25.209Z,62.20
2018-01-25T02:53:27.019Z,61.60
2018-01-25T02:54:28.082Z,61.60
2018-01-25T02:55:29.905Z,61.90
2018-01-25T02:56:30.983Z,61.90
2018-01-25T02:57:32.783Z,61.80
2018-01-25T02:58:33.836Z,61.80
2018-01-25T02:59:34.888Z,61.70
2018-01-25T03:00:35.943Z,62.50
2018-01-25T03:01:37.026Z,61.80
2018-01-25T03:02:38.082Z,62.00
2018-01-25T03:03:39.215Z,62.10
2018-01-25T03:04:40.279Z,62.00
2018-01-25T03:05:41.358Z,62.00
2018-01-25T03:06:43.198Z,62.10
2018-01-25T03:07:44.264Z,62.10
2018-01-25T03:08:45.338Z,62.00
2018-01-25T03:09:46.434Z,62.00
2018-01-25T03:10:47.515Z,61.90
2018-01-25T03:11:48.582Z,62.00
2018-01-25T03:12:50.386Z,61.90
2018-01-25T03:13:51.467Z,61.80
2018-01-25T03:14:53.265Z,61.80
2018-01-25T03:15:54.346Z,61.80
2018-01-25T03:16:56.150Z,61.80
2018-01-25T03:17:57.222Z,61.80
2018-01-25T03:18:58.267Z,61.60
2018-01-25T03:19:59.334Z,61.60
2018-01-25T03:21:00.403Z,61.60
2018-01-25T03:22:01.514Z,61.60
2018-01-25T03:23:02.587Z,61.60
2018-01-25T03:24:04.403Z,61.60
2018-01-25T03:25:05.476Z,61.60
2018-01-25T03:26:06.564Z,61.60
2018-01-25T03:27:07.627Z,61.70
2018-01-25T03:28:08.688Z,61.80
2018-01-25T03:29:09.763Z,61.70
2018-01-25T03:30:10.831Z,61.80
2018-01-25T03:31:12.663Z,61.80
2018-01-25T03:32:13.742Z,61.70
2018-01-25T03:33:14.823Z,61.90
2018-01-25T03:34:15.879Z,61.90
2018-01-25T03:35:16.947Z,61.60
2018-01-25T03:36:18.011Z,61.90
2018-01-25T03:37:19.086Z,61.80
2018-01-25T03:38:20.155Z,61.80
2018-01-25T03:39:21.211Z,61.80
2018-01-25T03:40:22.311Z,61.80
2018-01-25T03:41:23.390Z,61.70
2018-01-25T03:42:25.202Z,62.50
2018-01-25T03:43:26.252Z,61.70
2018-01-25T03:44:27.315Z,61.70
2018-01-25T03:45:29.126Z,61.80
2018-01-25T03:46:30.238Z,61.80
2018-01-25T03:47:31.316Z,61.80
2018-01-25T03:48:32.359Z,62.60
2018-01-25T03:49:33.414Z,61.80
2018-01-25T03:50:34.495Z,61.90
2018-01-25T03:51:35.546Z,61.80
2018-01-25T03:52:37.372Z,62.00
2018-01-25T03:53:38.434Z,62.00
2018-01-25T03:54:40.246Z,62.00
2018-01-25T03:55:41.321Z,62.00
2018-01-25T03:56:42.403Z,61.90
2018-01-25T03:57:43.467Z,62.00
2018-01-25T03:58:44.534Z,62.10
2018-01-25T03:59:45.610Z,62.00
2018-01-25T04:00:46.672Z,62.20
2018-01-25T04:01:48.488Z,62.30
2018-01-25T04:02:49.540Z,62.10
2018-01-25T04:03:50.588Z,62.20
2018-01-25T04:04:51.663Z,62.20
2018-01-25T04:05:52.714Z,62.30
2018-01-25T04:06:53.767Z,62.30
2018-01-25T04:07:54.814Z,62.40
2018-01-25T04:08:55.876Z,62.60
2018-01-25T04:09:56.948Z,62.80
2018-01-25T04:10:58.018Z,62.50
2018-01-25T04:11:59.087Z,62.50
2018-01-25T04:13:00.139Z,62.30
2018-01-25T04:14:01.194Z,62.40
2018-01-25T04:15:02.290Z,62.60
2018-01-25T04:16:03.394Z,62.90
2018-01-25T04:17:04.479Z,63.10
2018-01-25T04:18:05.550Z,63.10
2018-01-25T04:19:06.673Z,63.00
2018-01-25T04:20:07.761Z,63.00
2018-01-25T04:21:08.835Z,63.00
2018-01-25T04:22:09.912Z,63.00
2018-01-25T04:23:10.994Z,63.00
2018-01-25T04:24:12.802Z,63.00
2018-01-25T04:25:13.871Z,63.00
2018-01-25T04:26:15.695Z,63.00
2018-01-25T04:27:16.759Z,63.00
2018-01-25T04:28:18.630Z,63.00
2018-01-25T04:29:19.746Z,63.00
2018-01-25T04:30:20.856Z,63.00
2018-01-25T04:31:22.004Z,63.00
2018-01-25T04:32:23.206Z,62.90
2018-01-25T04:33:24.331Z,62.90
2018-01-25T04:34:25.383Z,63.00
2018-01-25T04:35:26.516Z,63.00
2018-01-25T04:36:27.580Z,62.90
2018-01-25T04:37:28.675Z,63.00
2018-01-25T04:38:29.743Z,63.00
2018-01-25T04:39:31.543Z,63.10
2018-01-25T04:40:32.610Z,63.10
2018-01-25T04:41:34.436Z,62.90
2018-01-25T04:42:35.510Z,63.00
2018-01-25T04:43:36.611Z,62.90
2018-01-25T04:44:37.739Z,62.80
2018-01-25T04:45:38.795Z,62.90
2018-01-25T04:46:40.630Z,62.80
2018-01-25T04:47:41.715Z,62.90
2018-01-25T04:48:42.776Z,61.90
2018-01-25T04:49:43.830Z,62.20
2018-01-25T04:50:44.967Z,62.10
2018-01-25T04:51:46.775Z,61.10
2018-01-25T04:52:47.836Z,61.00
2018-01-25T04:53:48.895Z,61.10
2018-01-25T04:54:49.982Z,60.40
2018-01-25T04:55:51.072Z,60.50
2018-01-25T04:56:52.127Z,60.40
2018-01-25T04:57:53.186Z,60.40
2018-01-25T04:58:54.250Z,60.20
2018-01-25T04:59:55.310Z,60.10
2018-01-25T05:00:56.379Z,59.70
2018-01-25T05:01:57.458Z,59.80
2018-01-25T05:02:58.570Z,59.90
2018-01-25T05:03:59.623Z,59.80
2018-01-25T05:05:00.701Z,59.60
2018-01-25T05:06:01.766Z,59.70
2018-01-25T05:07:02.848Z,59.40
2018-01-25T05:08:03.976Z,59.50
2018-01-25T05:09:05.087Z,59.40
2018-01-25T05:10:06.167Z,59.30
2018-01-25T05:11:07.235Z,59.40
2018-01-25T05:12:08.302Z,59.40
2018-01-25T05:13:09.371Z,59.40
2018-01-25T05:14:10.435Z,59.40
2018-01-25T05:15:11.531Z,59.40
2018-01-25T05:16:12.607Z,59.40
2018-01-25T05:17:20.504Z,59.10
2018-01-25T05:18:21.584Z,59.10
2018-01-25T05:19:22.662Z,59.20
2018-01-25T05:20:23.755Z,59.00
2018-01-25T05:21:24.997Z,59.40
2018-01-25T05:22:26.112Z,59.20
2018-01-25T05:23:27.304Z,59.00
2018-01-25T05:24:28.384Z,59.00
2018-01-25T05:25:29.449Z,59.10
2018-01-25T05:26:30.603Z,58.90
2018-01-25T05:27:31.765Z,58.90
2018-01-25T05:28:32.902Z,58.80
2018-01-25T05:29:33.976Z,59.00
2018-01-25T05:30:35.071Z,58.70
2018-01-25T05:31:36.136Z,58.80
2018-01-25T05:32:37.210Z,58.70
2018-01-25T05:33:38.320Z,58.80
2018-01-25T05:34:39.379Z,58.90
2018-01-25T05:35:40.463Z,58.60
2018-01-25T05:36:41.551Z,58.80
2018-01-25T05:37:42.612Z,58.70
2018-01-25T05:38:43.683Z,58.70
2018-01-25T05:39:45.515Z,58.50
2018-01-25T05:40:47.351Z,58.70
2018-01-25T05:41:48.415Z,58.60
2018-01-25T05:42:50.218Z,58.70
2018-01-25T05:43:51.316Z,58.70
2018-01-25T05:44:52.379Z,58.80
2018-01-25T05:45:53.459Z,58.70
2018-01-25T05:46:55.270Z,59.30
2018-01-25T05:47:56.341Z,58.60
2018-01-25T05:48:57.402Z,58.70
2018-01-25T05:49:58.460Z,58.70
2018-01-25T05:50:59.541Z,58.60
2018-01-25T05:52:01.345Z,58.60
2018-01-25T05:53:02.423Z,58.60
2018-01-25T05:54:03.509Z,58.60
2018-01-25T05:55:04.635Z,58.50
2018-01-25T05:56:05.711Z,58.70
2018-01-25T05:57:06.767Z,58.80
2018-01-25T05:58:07.871Z,58.80
2018-01-25T05:59:08.977Z,58.70
2018-01-25T06:00:10.039Z,58.80
2018-01-25T06:01:11.842Z,58.90
2018-01-25T06:02:12.911Z,58.80
2018-01-25T06:03:14.007Z,58.90
2018-01-25T06:04:15.092Z,58.80
2018-01-25T06:05:16.153Z,58.80
2018-01-25T06:06:17.208Z,58.70
2018-01-25T06:07:18.261Z,58.80
2018-01-25T06:08:19.319Z,58.70
2018-01-25T06:09:20.379Z,58.70
2018-01-25T06:10:21.476Z,58.70
2018-01-25T06:11:22.567Z,58.80
2018-01-25T06:12:23.632Z,58.80
2018-01-25T06:13:25.447Z,58.80
2018-01-25T06:14:26.506Z,58.70
2018-01-25T06:15:27.568Z,58.80
2018-01-25T06:16:28.638Z,58.80
2018-01-25T06:17:29.717Z,58.80
2018-01-25T06:18:31.530Z,58.70
2018-01-25T06:19:32.623Z,58.70
2018-01-25T06:20:33.688Z,58.60
2018-01-25T06:21:34.751Z,58.70
2018-01-25T06:22:35.850Z,58.60
2018-01-25T06:23:36.920Z,58.70
2018-01-25T06:24:37.996Z,58.50
2018-01-25T06:25:39.066Z,58.50
2018-01-25T06:26:40.130Z,58.50
2018-01-25T06:27:41.943Z,58.40
2018-01-25T06:28:43.014Z,58.40
2018-01-25T06:29:44.098Z,59.00
2018-01-25T06:30:45.171Z,58.40
2018-01-25T06:31:46.967Z,58.10
2018-01-25T06:32:48.044Z,58.10
2018-01-25T06:33:49.099Z,58.10
2018-01-25T06:34:50.158Z,58.10
2018-01-25T06:35:51.222Z,58.10
2018-01-25T06:36:52.331Z,58.00
2018-01-25T06:37:53.403Z,58.10
2018-01-25T06:38:55.235Z,58.00
2018-01-25T06:39:56.302Z,58.10
2018-01-25T06:40:58.118Z,58.20
2018-01-25T06:41:59.211Z,58.20
2018-01-25T06:43:00.282Z,58.10
2018-01-25T06:44:01.356Z,58.00
2018-01-25T06:45:02.419Z,58.00
2018-01-25T06:46:03.548Z,58.00
2018-01-25T06:47:05.337Z,58.20
2018-01-25T06:48:06.434Z,58.20
2018-01-25T06:49:07.533Z,58.30
2018-01-25T06:50:08.630Z,58.20
2018-01-25T06:51:09.696Z,58.40
2018-01-25T06:52:10.798Z,58.20
2018-01-25T06:53:11.864Z,58.50
2018-01-25T06:54:13.683Z,58.50
2018-01-25T06:55:14.777Z,58.50
2018-01-25T06:56:15.894Z,58.70
2018-01-25T06:57:16.968Z,58.60
2018-01-25T06:58:18.087Z,58.70
2018-01-25T06:59:19.843Z,58.70
2018-01-25T07:00:20.929Z,58.70
2018-01-25T07:01:22.023Z,58.80
2018-01-25T07:02:23.846Z,58.90
2018-01-25T07:03:24.908Z,59.00
2018-01-25T07:04:26.759Z,59.10
2018-01-25T07:05:27.835Z,59.10
2018-01-25T07:06:28.904Z,59.10
2018-01-25T07:07:29.976Z,59.40
2018-01-25T07:08:31.801Z,59.20
2018-01-25T07:09:32.931Z,59.20
2018-01-25T07:10:34.011Z,59.50
2018-01-25T07:11:35.155Z,58.80
2018-01-25T07:12:36.229Z,59.20
2018-01-25T07:13:38.321Z,59.00
2018-01-25T07:14:39.363Z,59.00
2018-01-25T07:15:40.442Z,59.20
2018-01-25T07:16:41.491Z,59.50
2018-01-25T07:17:42.548Z,59.50
2018-01-25T07:18:44.362Z,59.40
2018-01-25T07:19:46.258Z,59.50
2018-01-25T07:20:47.343Z,59.50
2018-01-25T07:21:48.439Z,59.50
2018-01-25T07:22:49.498Z,59.50
2018-01-25T07:23:50.582Z,59.40
2018-01-25T07:24:51.675Z,59.50
2018-01-25T07:25:52.748Z,59.40
2018-01-25T07:26:53.823Z,59.60
2018-01-25T07:27:54.879Z,59.80
2018-01-25T07:28:56.703Z,59.30
2018-01-25T07:29:57.755Z,59.70
2018-01-25T07:30:58.811Z,59.60
2018-01-25T07:31:59.875Z,59.70
2018-01-25T07:33:00.936Z,59.80
2018-01-25T07:34:02.013Z,59.70
2018-01-25T07:35:03.088Z,59.80
2018-01-25T07:36:04.179Z,60.00
2018-01-25T07:37:05.271Z,59.90
2018-01-25T07:38:06.334Z,59.90
2018-01-25T07:39:07.392Z,60.80
2018-01-25T07:40:08.463Z,59.90
2018-01-25T07:41:09.548Z,59.80
2018-01-25T07:42:10.671Z,59.90
2018-01-25T07:43:11.722Z,60.00
2018-01-25T07:44:12.794Z,59.70
2018-01-25T07:45:13.858Z,59.60
2018-01-25T07:46:15.685Z,59.50
2018-01-25T07:47:16.766Z,59.50
2018-01-25T07:48:17.919Z,59.40
2018-01-25T07:49:18.967Z,59.50
2018-01-25T07:50:20.087Z,59.40
2018-01-25T07:51:21.163Z,59.40
2018-01-25T07:52:23.017Z,59.50
2018-01-25T07:53:24.235Z,59.40
2018-01-25T07:54:25.442Z,59.40
2018-01-25T07:55:26.495Z,59.50
2018-01-25T07:56:27.582Z,59.50
2018-01-25T07:57:35.499Z,60.10
2018-01-25T07:58:36.574Z,60.10
2018-01-25T07:59:38.435Z,60.20
2018-01-25T08:00:39.553Z,60.20
2018-01-25T08:01:40.647Z,60.20
2018-01-25T08:02:41.738Z,60.20
2018-01-25T08:03:42.803Z,60.10
2018-01-25T08:04:43.892Z,60.10
2018-01-25T08:05:44.950Z,59.90
2018-01-25T08:06:46.014Z,59.80
2018-01-25T08:07:47.088Z,60.10
2018-01-25T08:08:48.896Z,60.20
2018-01-25T08:09:49.969Z,60.20
2018-01-25T08:10:51.042Z,60.30
2018-01-25T08:11:52.128Z,60.10
2018-01-25T08:12:53.962Z,60.00
2018-01-25T08:13:55.020Z,60.00
2018-01-25T08:14:56.095Z,60.40
2018-01-25T08:16:03.166Z,59.70
2018-01-25T08:17:04.317Z,59.80
2018-01-25T08:18:05.629Z,59.90
2018-01-25T08:19:06.584Z,59.70
2018-01-25T08:20:07.687Z,59.80
2018-01-25T08:21:08.764Z,59.50
2018-01-25T08:22:09.898Z,59.40
2018-01-25T08:23:10.979Z,59.50
2018-01-25T08:24:12.040Z,59.50
2018-01-25T08:25:13.118Z,59.40
2018-01-25T08:26:14.253Z,59.30
2018-01-25T08:27:15.335Z,59.20
2018-01-25T08:28:16.471Z,59.20
2018-01-25T08:29:17.546Z,59.50
2018-01-25T08:30:18.627Z,59.00
2018-01-25T08:31:19.715Z,59.20
2018-01-25T08:32:20.798Z,59.30
2018-01-25T08:33:21.874Z,59.30
2018-01-25T08:34:23.683Z,59.30
2018-01-25T08:35:24.762Z,59.40
2018-01-25T08:36:25.862Z,59.50
2018-01-25T08:37:26.927Z,59.50
2018-01-25T08:38:28.004Z,59.50
2018-01-25T08:39:29.059Z,59.50
2018-01-25T08:40:30.125Z,59.40
2018-01-25T08:41:33.226Z,59.10
2018-01-25T08:42:33.072Z,59.30
2018-01-25T08:43:34.135Z,59.30
2018-01-25T08:44:36.239Z,59.60
2018-01-25T08:45:37.360Z,59.50
2018-01-25T08:46:38.476Z,59.50
2018-01-25T08:47:39.534Z,59.40
2018-01-25T08:48:40.595Z,59.30
2018-01-25T08:49:41.670Z,59.40
2018-01-25T08:50:42.753Z,59.10
2018-01-25T08:51:43.871Z,58.90
2018-01-25T08:52:44.931Z,58.80
2018-01-25T08:53:46.726Z,59.00
2018-01-25T08:54:47.793Z,59.00
2018-01-25T08:55:48.874Z,58.90
2018-01-25T08:56:49.959Z,59.00
2018-01-25T08:57:51.138Z,58.90
2018-01-25T08:58:52.162Z,59.60
2018-01-25T08:59:53.255Z,59.00
2018-01-25T09:00:54.319Z,59.00
2018-01-25T09:01:56.148Z,58.40
2018-01-25T09:02:57.229Z,58.40
2018-01-25T09:03:58.295Z,58.30
2018-01-25T09:04:59.351Z,58.60
2018-01-25T09:06:00.416Z,58.60
2018-01-25T09:07:01.535Z,58.90
2018-01-25T09:09:11.045Z,58.70
2018-01-25T09:10:12.119Z,58.40
2018-01-25T09:11:13.198Z,58.00
2018-01-25T09:12:14.278Z,58.10
2018-01-25T09:13:15.342Z,58.00
2018-01-25T09:14:16.395Z,58.40
2018-01-25T09:15:17.449Z,58.00
2018-01-25T09:16:19.244Z,57.90
2018-01-25T09:17:20.306Z,57.90
2018-01-25T09:18:21.387Z,58.00
2018-01-25T09:19:22.483Z,58.20
2018-01-25T09:20:23.532Z,58.10
2018-01-25T09:21:25.404Z,57.70
2018-01-25T09:22:26.466Z,57.60
2018-01-25T09:23:27.612Z,57.60
2018-01-25T09:24:28.683Z,57.80
2018-01-25T09:25:30.493Z,57.80
2018-01-25T09:26:31.559Z,57.80
2018-01-25T09:27:33.366Z,57.80
2018-01-25T09:28:34.446Z,57.80
2018-01-25T09:29:36.247Z,57.60
2018-01-25T09:30:37.307Z,57.60
2018-01-25T09:31:39.127Z,57.90
2018-01-25T09:32:40.216Z,57.70
2018-01-25T09:33:42.027Z,57.60
2018-01-25T09:34:43.087Z,57.70
2018-01-25T09:35:44.896Z,57.10
2018-01-25T09:36:45.991Z,57.10
2018-01-25T09:37:47.063Z,57.30
2018-01-25T09:38:48.133Z,57.00
2018-01-25T09:39:49.215Z,57.20
2018-01-25T09:40:50.285Z,56.90
2018-01-25T09:41:51.383Z,57.10
2018-01-25T09:42:52.443Z,57.00
2018-01-25T09:43:53.514Z,57.10
2018-01-25T09:44:54.666Z,57.20
2018-01-25T09:45:55.751Z,56.90
2018-01-25T09:46:56.814Z,57.00
2018-01-25T09:47:57.887Z,57.00
2018-01-25T09:48:58.958Z,56.90
2018-01-25T09:50:00.823Z,56.80
2018-01-25T09:51:01.923Z,56.80
2018-01-25T09:52:03.750Z,57.10
2018-01-25T09:53:04.811Z,57.00
2018-01-25T09:54:06.630Z,56.80
2018-01-25T09:55:07.694Z,56.90
2018-01-25T09:56:08.759Z,56.50
2018-01-25T09:57:09.839Z,56.80
2018-01-25T09:58:10.964Z,56.90
2018-01-25T09:59:12.040Z,56.70
2018-01-25T10:00:13.145Z,56.60
2018-01-25T10:01:14.227Z,56.90
2018-01-25T10:02:15.294Z,56.80
2018-01-25T10:03:16.376Z,56.80
2018-01-25T10:04:17.436Z,56.90
2018-01-25T10:05:18.500Z,56.70
2018-01-25T10:06:19.572Z,56.70
2018-01-25T10:07:20.667Z,57.10
2018-01-25T10:08:21.723Z,57.00
2018-01-25T10:09:23.525Z,56.70
2018-01-25T10:10:24.609Z,56.70
2018-01-25T10:11:25.696Z,56.80
2018-01-25T10:12:26.755Z,56.70
2018-01-25T10:13:27.839Z,56.40
2018-01-25T10:14:28.919Z,56.40
2018-01-25T10:15:30.732Z,56.50
2018-01-25T10:16:31.807Z,56.50
2018-01-25T10:17:33.619Z,56.30
2018-01-25T10:18:34.751Z,56.20
2018-01-25T10:19:35.895Z,56.40
2018-01-25T10:20:37.066Z,56.40
2018-01-25T10:21:38.187Z,56.30
2018-01-25T10:22:39.267Z,56.40
2018-01-25T10:23:40.347Z,56.40
2018-01-25T10:24:41.403Z,56.40
2018-01-25T10:25:42.468Z,56.40
2018-01-25T10:26:43.579Z,56.10
2018-01-25T10:27:44.712Z,56.30
2018-01-25T10:28:45.774Z,56.40
2018-01-25T10:29:46.878Z,56.40
2018-01-25T10:30:48.819Z,56.40
2018-01-25T10:31:49.883Z,56.30
2018-01-25T10:32:50.931Z,56.40
2018-01-25T10:33:51.991Z,56.50
2018-01-25T10:34:53.065Z,56.20
2018-01-25T10:35:54.125Z,56.00
2018-01-25T10:36:55.183Z,56.00
2018-01-25T10:37:56.239Z,55.50
2018-01-25T10:38:57.349Z,55.70
2018-01-25T10:39:58.431Z,55.70
2018-01-25T10:40:59.506Z,55.70
2018-01-25T10:42:00.605Z,55.00
2018-01-25T10:43:01.717Z,54.90
2018-01-25T10:44:02.777Z,55.30
2018-01-25T10:45:03.875Z,55.00
2018-01-25T10:46:04.953Z,55.40
2018-01-25T10:47:06.001Z,55.30
2018-01-25T10:48:07.816Z,55.80
2018-01-25T10:49:08.940Z,55.00
2018-01-25T10:50:10.023Z,55.20
2018-01-25T10:51:11.834Z,54.90
2018-01-25T10:52:12.955Z,54.90
2018-01-25T10:53:14.031Z,55.00
2018-01-25T10:54:15.084Z,54.80
2018-01-25T10:55:16.187Z,55.00
2018-01-25T10:56:17.271Z,54.90
2018-01-25T10:57:18.339Z,55.00
2018-01-25T10:58:19.407Z,55.00
2018-01-25T10:59:21.221Z,54.50
2018-01-25T11:00:22.328Z,54.50
2018-01-25T11:01:29.551Z,54.90
2018-01-25T11:02:31.399Z,54.70
2018-01-25T11:03:32.489Z,54.80
2018-01-25T11:04:34.390Z,55.00
2018-01-25T11:05:35.561Z,55.00
2018-01-25T11:06:36.634Z,54.70
2018-01-25T11:07:37.721Z,54.80
2018-01-25T11:08:38.822Z,54.40
2018-01-25T11:09:39.882Z,54.40
2018-01-25T11:10:40.999Z,54.10
2018-01-25T11:11:42.108Z,54.20
2018-01-25T11:12:43.170Z,53.90
2018-01-25T11:13:44.254Z,54.70
2018-01-25T11:14:45.322Z,54.20
2018-01-25T11:15:47.191Z,53.80
2018-01-25T11:16:48.253Z,53.90
2018-01-25T11:17:49.307Z,54.10
2018-01-25T11:18:50.367Z,54.20
2018-01-25T11:19:52.159Z,54.10
2018-01-25T11:20:53.974Z,53.80
2018-01-25T11:21:55.047Z,53.80
2018-01-25T11:22:56.102Z,54.00
2018-01-25T11:23:57.288Z,53.80
2018-01-25T11:24:58.360Z,54.00
2018-01-25T11:25:59.435Z,54.20
2018-01-25T11:27:01.260Z,53.90
2018-01-25T11:28:02.338Z,54.00
2018-01-25T11:29:03.443Z,54.10
2018-01-25T11:30:04.522Z,54.10
2018-01-25T11:31:05.609Z,54.00
2018-01-25T11:32:06.732Z,54.00
2018-01-25T11:33:08.579Z,54.30
2018-01-25T11:34:09.659Z,54.30
2018-01-25T11:35:10.741Z,54.10
2018-01-25T11:36:11.798Z,54.30
2018-01-25T11:37:12.855Z,54.00
2018-01-25T11:38:13.911Z,54.20
2018-01-25T11:39:14.975Z,54.10
2018-01-25T11:40:16.040Z,54.20
2018-01-25T11:41:17.140Z,54.40
2018-01-25T11:42:18.191Z,54.20
2018-01-25T11:43:19.978Z,54.10
2018-01-25T11:44:21.052Z,54.10
2018-01-25T11:45:22.866Z,53.90
2018-01-25T11:46:23.936Z,53.80
2018-01-25T11:47:25.027Z,53.70
2018-01-25T11:48:26.828Z,53.50
2018-01-25T11:49:27.903Z,53.60
2018-01-25T11:50:28.975Z,54.00
2018-01-25T11:51:30.062Z,54.00
2018-01-25T11:52:31.123Z,54.00
2018-01-25T11:53:32.186Z,53.60
2018-01-25T11:54:33.242Z,53.50
2018-01-25T11:55:34.322Z,53.60
2018-01-25T11:56:35.420Z,53.70
2018-01-25T11:57:36.491Z,53.90
2018-01-25T11:58:37.596Z,53.90
2018-01-25T11:59:39.379Z,54.40
2018-01-25T12:00:40.432Z,54.40
2018-01-25T12:01:41.532Z,53.80
2018-01-25T12:02:42.592Z,53.80
2018-01-25T12:03:43.654Z,53.50
2018-01-25T12:04:44.718Z,53.50
2018-01-25T12:05:45.775Z,53.50
2018-01-25T12:06:46.847Z,53.10
2018-01-25T12:07:47.929Z,53.20
2018-01-25T12:08:48.997Z,53.20
2018-01-25T12:09:50.082Z,53.40
2018-01-25T12:10:51.145Z,53.20
2018-01-25T12:11:52.212Z,53.70
2018-01-25T12:12:53.256Z,53.70
2018-01-25T12:13:54.313Z,53.20
2018-01-25T12:14:55.551Z,53.20
2018-01-25T12:15:56.631Z,53.20
2018-01-25T12:16:57.715Z,53.20
2018-01-25T12:17:58.780Z,53.30
2018-01-25T12:18:59.843Z,53.20
2018-01-25T12:20:00.923Z,53.20
2018-01-25T12:21:02.013Z,53.20
2018-01-25T12:22:03.087Z,53.30
2018-01-25T12:23:04.136Z,53.20
2018-01-25T12:24:05.944Z,53.20
2018-01-25T12:25:07.019Z,53.30
2018-01-25T12:26:08.830Z,53.50
2018-01-25T12:27:09.925Z,53.50
2018-01-25T12:28:10.994Z,53.60
2018-01-25T12:29:12.084Z,53.40
2018-01-25T12:30:13.219Z,53.30
2018-01-25T12:31:14.233Z,53.30
2018-01-25T12:32:15.322Z,53.00
2018-01-25T12:33:16.407Z,53.40
2018-01-25T12:34:17.483Z,54.10
2018-01-25T12:35:18.563Z,53.40
2018-01-25T12:36:19.624Z,53.10
2018-01-25T12:37:20.679Z,53.40
2018-01-25T12:38:21.747Z,53.40
2018-01-25T12:39:22.795Z,53.40
2018-01-25T12:40:23.905Z,53.40
2018-01-25T12:41:24.947Z,53.40
2018-01-25T12:42:26.762Z,52.80
2018-01-25T12:43:27.866Z,52.80
2018-01-25T12:44:28.931Z,52.80
2018-01-25T12:45:29.983Z,53.00
2018-01-25T12:46:31.804Z,52.90
2018-01-25T12:47:32.872Z,52.80
2018-01-25T12:48:33.963Z,52.80
2018-01-25T12:49:35.032Z,52.70
2018-01-25T12:50:36.145Z,52.50
2018-01-25T12:51:37.220Z,52.20
2018-01-25T12:52:38.291Z,52.00
2018-01-25T12:53:39.352Z,52.50
2018-01-25T12:54:40.401Z,53.30
2018-01-25T12:55:42.201Z,52.60
2018-01-25T12:56:44.007Z,52.50
2018-01-25T12:57:45.073Z,52.50
2018-01-25T12:58:46.135Z,52.60
2018-01-25T12:59:47.195Z,52.10
2018-01-25T13:00:48.286Z,52.00
2018-01-25T13:01:49.395Z,53.20
2018-01-25T13:02:50.498Z,52.50
2018-01-25T13:03:51.569Z,52.70
2018-01-25T13:04:52.647Z,52.80
2018-01-25T13:05:54.471Z,52.50
2018-01-25T13:06:57.018Z,52.40
2018-01-25T13:07:58.092Z,52.40
2018-01-25T13:08:59.151Z,52.20
2018-01-25T13:10:01.003Z,52.40
2018-01-25T13:11:02.098Z,52.40